sensor_id;sensor_type;location;lat;lon;timestamp;temperature;humidity
22532;DHT22;11432;46.924;7.114;2024-03-02T00:02:01;3.50;1.00
22532;DHT22;11432;46.924;7.114;2024-03-02T00:04:27;3.50;1.00
22532;DHT22;11432;46.924;7.114;2024-03-02T00:06:53;3.50;99.90
22532;DHT22;11432;46.924;7.114;2024-03-02T00:09:21;3.50;99.90
22532;DHT22;11432;46.924;7.114;2024-03-02T00:11:47;3.40;72.70
22532;DHT22;11432;46.924;7.114;2024-03-02T00:14:12;3.40;99.90
22532;DHT22;11432;46.924;7.114;2024-03-02T00:16:38;3.40;99.90
22532;DHT22;11432;46.924;7.114;2024-03-02T00:19:05;3.30;1.00
22532;DHT22;11432;46.924;7.114;2024-03-02T00:21:32;3.30;99.90
22532;DHT22;11432;46.924;7.114;2024-03-02T00:23:58;3.30;99.90
22532;DHT22;11432;46.924;7.114;2024-03-02T00:26:25;3.30;99.90
22532;DHT22;11432;46.924;7.114;2024-03-02T00:28:54;3.20;99.90
22532;DHT22;11432;46.924;7.114;2024-03-02T00:31:22;3.20;99.90
22532;DHT22;11432;46.924;7.114;2024-03-02T00:33:48;3.20;99.90
22532;DHT22;11432;46.924;7.114;2024-03-02T00:36:24;3.20;1.00
22532;DHT22;11432;46.924;7.114;2024-03-02T00:38:51;3.20;1.00
22532;DHT22;11432;46.924;7.114;2024-03-02T00:41:30;3.20;1.00
22532;DHT22;11432;46.924;7.114;2024-03-02T00:44:03;3.10;1.00
22532;DHT22;11432;46.924;7.114;2024-03-02T00:46:41;3.10;1.00
22532;DHT22;11432;46.924;7.114;2024-03-02T00:49:22;3.10;1.00
22532;DHT22;11432;46.924;7.114;2024-03-02T00:51:50;3.10;1.00
22532;DHT22;11432;46.924;7.114;2024-03-02T00:54:23;3.10;1.00
22532;DHT22;11432;46.924;7.114;2024-03-02T00:56:50;3.00;1.00
22532;DHT22;11432;46.924;7.114;2024-03-02T00:59:15;3.00;1.00
22532;DHT22;11432;46.924;7.114;2024-03-02T01:01:41;3.00;1.00
22532;DHT22;11432;46.924;7.114;2024-03-02T01:04:08;3.00;1.00
22532;DHT22;11432;46.924;7.114;2024-03-02T01:06:35;3.00;1.00
22532;DHT22;11432;46.924;7.114;2024-03-02T01:09:00;3.00;1.00
22532;DHT22;11432;46.924;7.114;2024-03-02T01:11:26;3.00;1.00
22532;DHT22;11432;46.924;7.114;2024-03-02T01:13:52;2.90;1.00
22532;DHT22;11432;46.924;7.114;2024-03-02T01:16:17;2.90;1.00
22532;DHT22;11432;46.924;7.114;2024-03-02T01:18:43;2.80;1.00
22532;DHT22;11432;46.924;7.114;2024-03-02T01:21:09;2.80;1.00
22532;DHT22;11432;46.924;7.114;2024-03-02T01:23:34;2.80;1.00
22532;DHT22;11432;46.924;7.114;2024-03-02T01:26:00;2.80;1.00
22532;DHT22;11432;46.924;7.114;2024-03-02T01:28:26;2.90;99.90
22532;DHT22;11432;46.924;7.114;2024-03-02T01:30:51;2.90;99.90
22532;DHT22;11432;46.924;7.114;2024-03-02T01:33:17;2.90;95.40
22532;DHT22;11432;46.924;7.114;2024-03-02T01:35:43;2.90;99.90
22532;DHT22;11432;46.924;7.114;2024-03-02T01:38:09;2.90;92.20
22532;DHT22;11432;46.924;7.114;2024-03-02T01:40:35;2.90;93.40
22532;DHT22;11432;46.924;7.114;2024-03-02T01:43:02;2.90;88.30
22532;DHT22;11432;46.924;7.114;2024-03-02T01:45:28;2.80;92.60
22532;DHT22;11432;46.924;7.114;2024-03-02T01:47:54;2.80;90.80
22532;DHT22;11432;46.924;7.114;2024-03-02T01:50:29;2.80;99.90
22532;DHT22;11432;46.924;7.114;2024-03-02T01:52:56;2.80;99.90
22532;DHT22;11432;46.924;7.114;2024-03-02T01:55:22;2.80;99.90
22532;DHT22;11432;46.924;7.114;2024-03-02T01:57:49;2.90;99.90
22532;DHT22;11432;46.924;7.114;2024-03-02T02:00:16;2.90;99.90
22532;DHT22;11432;46.924;7.114;2024-03-02T02:02:43;2.80;99.90
22532;DHT22;11432;46.924;7.114;2024-03-02T02:05:08;2.80;95.60
22532;DHT22;11432;46.924;7.114;2024-03-02T02:07:35;2.80;96.30
22532;DHT22;11432;46.924;7.114;2024-03-02T02:10:01;2.80;15.10
22532;DHT22;11432;46.924;7.114;2024-03-02T02:12:26;2.70;14.60
22532;DHT22;11432;46.924;7.114;2024-03-02T02:14:52;2.70;90.50
22532;DHT22;11432;46.924;7.114;2024-03-02T02:17:18;2.70;99.90
22532;DHT22;11432;46.924;7.114;2024-03-02T02:19:43;2.70;99.90
22532;DHT22;11432;46.924;7.114;2024-03-02T02:22:12;2.70;99.90
22532;DHT22;11432;46.924;7.114;2024-03-02T02:24:41;2.60;99.90
22532;DHT22;11432;46.924;7.114;2024-03-02T02:27:07;2.60;99.90
22532;DHT22;11432;46.924;7.114;2024-03-02T02:29:33;2.60;99.90
22532;DHT22;11432;46.924;7.114;2024-03-02T02:31:58;2.70;99.90
22532;DHT22;11432;46.924;7.114;2024-03-02T02:34:24;2.70;99.90
22532;DHT22;11432;46.924;7.114;2024-03-02T02:36:49;2.70;99.90
22532;DHT22;11432;46.924;7.114;2024-03-02T02:39:16;2.70;99.90
22532;DHT22;11432;46.924;7.114;2024-03-02T02:41:42;2.70;99.90
22532;DHT22;11432;46.924;7.114;2024-03-02T02:44:08;2.60;99.90
22532;DHT22;11432;46.924;7.114;2024-03-02T02:46:36;2.60;99.90
22532;DHT22;11432;46.924;7.114;2024-03-02T02:49:03;2.60;99.90
22532;DHT22;11432;46.924;7.114;2024-03-02T02:51:29;2.60;99.90
22532;DHT22;11432;46.924;7.114;2024-03-02T02:53:54;2.70;99.90
22532;DHT22;11432;46.924;7.114;2024-03-02T02:56:20;2.70;99.90
22532;DHT22;11432;46.924;7.114;2024-03-02T02:58:45;2.80;99.90
22532;DHT22;11432;46.924;7.114;2024-03-02T03:01:11;2.80;99.90
22532;DHT22;11432;46.924;7.114;2024-03-02T03:03:36;2.80;99.90
22532;DHT22;11432;46.924;7.114;2024-03-02T03:06:02;2.80;99.90
22532;DHT22;11432;46.924;7.114;2024-03-02T03:08:28;2.80;99.90
22532;DHT22;11432;46.924;7.114;2024-03-02T03:10:54;2.70;99.90
22532;DHT22;11432;46.924;7.114;2024-03-02T03:13:19;2.80;99.90
22532;DHT22;11432;46.924;7.114;2024-03-02T03:15:45;2.80;99.90
22532;DHT22;11432;46.924;7.114;2024-03-02T03:18:11;2.80;99.90
22532;DHT22;11432;46.924;7.114;2024-03-02T03:20:36;2.80;99.90
22532;DHT22;11432;46.924;7.114;2024-03-02T03:23:02;2.70;99.90
22532;DHT22;11432;46.924;7.114;2024-03-02T03:25:29;2.70;99.90
22532;DHT22;11432;46.924;7.114;2024-03-02T03:27:55;2.70;99.90
22532;DHT22;11432;46.924;7.114;2024-03-02T03:30:21;2.60;99.90
22532;DHT22;11432;46.924;7.114;2024-03-02T03:32:46;2.50;99.90
22532;DHT22;11432;46.924;7.114;2024-03-02T03:35:13;2.50;99.90
22532;DHT22;11432;46.924;7.114;2024-03-02T03:37:40;2.50;99.90
22532;DHT22;11432;46.924;7.114;2024-03-02T03:40:06;2.50;99.90
22532;DHT22;11432;46.924;7.114;2024-03-02T03:42:35;2.50;99.90
22532;DHT22;11432;46.924;7.114;2024-03-02T03:45:01;2.50;99.90
22532;DHT22;11432;46.924;7.114;2024-03-02T03:47:27;2.50;99.90
22532;DHT22;11432;46.924;7.114;2024-03-02T03:49:52;2.50;99.90
22532;DHT22;11432;46.924;7.114;2024-03-02T03:52:18;2.50;99.90
22532;DHT22;11432;46.924;7.114;2024-03-02T03:54:44;2.40;99.90
22532;DHT22;11432;46.924;7.114;2024-03-02T03:57:10;2.40;99.90
22532;DHT22;11432;46.924;7.114;2024-03-02T03:59:35;2.40;99.90
22532;DHT22;11432;46.924;7.114;2024-03-02T04:02:03;2.30;99.90
22532;DHT22;11432;46.924;7.114;2024-03-02T04:04:29;2.30;99.90
22532;DHT22;11432;46.924;7.114;2024-03-02T04:06:54;2.30;99.90
22532;DHT22;11432;46.924;7.114;2024-03-02T04:09:20;2.40;99.90
22532;DHT22;11432;46.924;7.114;2024-03-02T04:11:45;2.40;99.90
22532;DHT22;11432;46.924;7.114;2024-03-02T04:14:11;2.60;99.90
22532;DHT22;11432;46.924;7.114;2024-03-02T04:16:38;2.60;99.90
22532;DHT22;11432;46.924;7.114;2024-03-02T04:19:04;2.60;99.90
22532;DHT22;11432;46.924;7.114;2024-03-02T04:21:30;2.50;99.90
22532;DHT22;11432;46.924;7.114;2024-03-02T04:23:56;2.50;99.90
22532;DHT22;11432;46.924;7.114;2024-03-02T04:26:24;2.40;99.90
22532;DHT22;11432;46.924;7.114;2024-03-02T04:28:51;2.40;99.90
22532;DHT22;11432;46.924;7.114;2024-03-02T04:31:16;2.30;99.90
22532;DHT22;11432;46.924;7.114;2024-03-02T04:33:42;2.30;99.90
22532;DHT22;11432;46.924;7.114;2024-03-02T04:36:08;2.30;99.90
22532;DHT22;11432;46.924;7.114;2024-03-02T04:38:35;2.20;99.90
22532;DHT22;11432;46.924;7.114;2024-03-02T04:41:01;2.20;99.90
22532;DHT22;11432;46.924;7.114;2024-03-02T04:43:26;2.30;99.90
22532;DHT22;11432;46.924;7.114;2024-03-02T04:45:52;2.30;99.90
22532;DHT22;11432;46.924;7.114;2024-03-02T04:48:17;2.20;99.90
22532;DHT22;11432;46.924;7.114;2024-03-02T04:50:44;2.20;99.90
22532;DHT22;11432;46.924;7.114;2024-03-02T04:53:10;2.20;99.90
22532;DHT22;11432;46.924;7.114;2024-03-02T04:55:36;2.20;99.90
22532;DHT22;11432;46.924;7.114;2024-03-02T04:58:04;2.20;99.90
22532;DHT22;11432;46.924;7.114;2024-03-02T05:00:30;2.20;99.90
22532;DHT22;11432;46.924;7.114;2024-03-02T05:02:56;2.20;99.90
22532;DHT22;11432;46.924;7.114;2024-03-02T05:05:22;2.20;99.90
22532;DHT22;11432;46.924;7.114;2024-03-02T05:07:47;2.10;99.90
22532;DHT22;11432;46.924;7.114;2024-03-02T05:10:13;2.10;99.90
22532;DHT22;11432;46.924;7.114;2024-03-02T05:12:39;2.10;99.90
22532;DHT22;11432;46.924;7.114;2024-03-02T05:15:08;2.00;99.90
22532;DHT22;11432;46.924;7.114;2024-03-02T05:17:35;2.00;99.90
22532;DHT22;11432;46.924;7.114;2024-03-02T05:20:01;2.00;99.90
22532;DHT22;11432;46.924;7.114;2024-03-02T05:22:27;2.00;99.90
22532;DHT22;11432;46.924;7.114;2024-03-02T05:24:53;2.00;99.90
22532;DHT22;11432;46.924;7.114;2024-03-02T05:27:18;2.00;99.90
22532;DHT22;11432;46.924;7.114;2024-03-02T05:29:44;2.00;99.90
22532;DHT22;11432;46.924;7.114;2024-03-02T05:32:09;2.10;99.90
22532;DHT22;11432;46.924;7.114;2024-03-02T05:34:35;2.10;99.90
22532;DHT22;11432;46.924;7.114;2024-03-02T05:37:01;2.10;99.90
22532;DHT22;11432;46.924;7.114;2024-03-02T05:39:27;2.00;99.90
22532;DHT22;11432;46.924;7.114;2024-03-02T05:41:52;2.10;99.90
22532;DHT22;11432;46.924;7.114;2024-03-02T05:44:18;2.10;99.90
22532;DHT22;11432;46.924;7.114;2024-03-02T05:46:45;2.20;99.90
22532;DHT22;11432;46.924;7.114;2024-03-02T05:49:10;2.20;99.90
22532;DHT22;11432;46.924;7.114;2024-03-02T05:51:36;2.20;99.90
22532;DHT22;11432;46.924;7.114;2024-03-02T05:54:02;2.20;99.90
22532;DHT22;11432;46.924;7.114;2024-03-02T05:56:28;2.20;99.90
22532;DHT22;11432;46.924;7.114;2024-03-02T05:58:53;2.10;99.90
22532;DHT22;11432;46.924;7.114;2024-03-02T06:01:44;2.00;99.90
22532;DHT22;11432;46.924;7.114;2024-03-02T06:04:12;2.00;99.90
22532;DHT22;11432;46.924;7.114;2024-03-02T06:06:38;1.90;99.90
22532;DHT22;11432;46.924;7.114;2024-03-02T06:09:04;1.90;99.90
22532;DHT22;11432;46.924;7.114;2024-03-02T06:11:37;1.80;99.90
22532;DHT22;11432;46.924;7.114;2024-03-02T06:14:03;1.80;99.90
22532;DHT22;11432;46.924;7.114;2024-03-02T06:16:29;1.80;99.90
22532;DHT22;11432;46.924;7.114;2024-03-02T06:18:55;1.80;99.90
22532;DHT22;11432;46.924;7.114;2024-03-02T06:21:23;1.80;99.90
22532;DHT22;11432;46.924;7.114;2024-03-02T06:23:49;1.80;99.90
22532;DHT22;11432;46.924;7.114;2024-03-02T06:26:14;1.90;99.90
22532;DHT22;11432;46.924;7.114;2024-03-02T06:28:40;1.90;99.90
22532;DHT22;11432;46.924;7.114;2024-03-02T06:31:05;1.90;99.90
22532;DHT22;11432;46.924;7.114;2024-03-02T06:33:31;1.90;99.90
22532;DHT22;11432;46.924;7.114;2024-03-02T06:35:56;2.00;99.90
22532;DHT22;11432;46.924;7.114;2024-03-02T06:38:22;2.00;99.90
22532;DHT22;11432;46.924;7.114;2024-03-02T06:40:48;2.00;99.90
22532;DHT22;11432;46.924;7.114;2024-03-02T06:43:13;2.00;99.90
22532;DHT22;11432;46.924;7.114;2024-03-02T06:45:39;2.00;99.90
22532;DHT22;11432;46.924;7.114;2024-03-02T06:48:05;2.00;99.90
22532;DHT22;11432;46.924;7.114;2024-03-02T06:50:30;2.60;99.90
22532;DHT22;11432;46.924;7.114;2024-03-02T06:52:56;2.40;99.90
22532;DHT22;11432;46.924;7.114;2024-03-02T06:55:24;2.40;99.90
22532;DHT22;11432;46.924;7.114;2024-03-02T06:57:52;2.40;99.90
22532;DHT22;11432;46.924;7.114;2024-03-02T07:00:19;2.40;99.90
22532;DHT22;11432;46.924;7.114;2024-03-02T07:02:46;2.40;99.90
22532;DHT22;11432;46.924;7.114;2024-03-02T07:05:12;2.50;99.90
22532;DHT22;11432;46.924;7.114;2024-03-02T07:07:37;2.50;99.90
22532;DHT22;11432;46.924;7.114;2024-03-02T07:10:04;2.50;99.90
22532;DHT22;11432;46.924;7.114;2024-03-02T07:12:30;2.50;68.10
22532;DHT22;11432;46.924;7.114;2024-03-02T07:14:57;2.60;58.60
22532;DHT22;11432;46.924;7.114;2024-03-02T07:17:29;2.70;16.00
22532;DHT22;11432;46.924;7.114;2024-03-02T07:19:54;2.80;1.00
22532;DHT22;11432;46.924;7.114;2024-03-02T07:22:20;2.80;1.00
22532;DHT22;11432;46.924;7.114;2024-03-02T07:24:46;2.90;1.00
22532;DHT22;11432;46.924;7.114;2024-03-02T07:27:12;2.90;1.00
22532;DHT22;11432;46.924;7.114;2024-03-02T07:29:39;3.00;1.00
22532;DHT22;11432;46.924;7.114;2024-03-02T07:32:06;3.10;1.00
22532;DHT22;11432;46.924;7.114;2024-03-02T07:34:32;3.30;1.00
22532;DHT22;11432;46.924;7.114;2024-03-02T07:36:58;3.40;1.00
22532;DHT22;11432;46.924;7.114;2024-03-02T07:39:24;3.50;99.90
22532;DHT22;11432;46.924;7.114;2024-03-02T07:41:50;3.70;95.40
22532;DHT22;11432;46.924;7.114;2024-03-02T07:44:15;3.90;99.90
22532;DHT22;11432;46.924;7.114;2024-03-02T07:46:42;4.10;1.00
22532;DHT22;11432;46.924;7.114;2024-03-02T07:49:08;4.30;99.90
22532;DHT22;11432;46.924;7.114;2024-03-02T07:51:34;4.50;99.90
22532;DHT22;11432;46.924;7.114;2024-03-02T07:54:00;4.80;1.00
22532;DHT22;11432;46.924;7.114;2024-03-02T07:56:25;4.90;99.90
22532;DHT22;11432;46.924;7.114;2024-03-02T07:58:51;5.20;99.90
22532;DHT22;11432;46.924;7.114;2024-03-02T08:01:17;5.40;99.90
22532;DHT22;11432;46.924;7.114;2024-03-02T08:03:43;5.50;1.00
22532;DHT22;11432;46.924;7.114;2024-03-02T08:06:17;5.60;1.00
22532;DHT22;11432;46.924;7.114;2024-03-02T08:08:46;5.80;1.00
22532;DHT22;11432;46.924;7.114;2024-03-02T08:11:11;6.00;1.00
22532;DHT22;11432;46.924;7.114;2024-03-02T08:13:38;6.20;1.00
22532;DHT22;11432;46.924;7.114;2024-03-02T08:16:03;6.40;99.90
22532;DHT22;11432;46.924;7.114;2024-03-02T08:18:32;6.50;99.90
22532;DHT22;11432;46.924;7.114;2024-03-02T08:20:58;6.50;1.00
22532;DHT22;11432;46.924;7.114;2024-03-02T08:23:23;6.50;63.40
22532;DHT22;11432;46.924;7.114;2024-03-02T08:25:49;6.30;99.90
22532;DHT22;11432;46.924;7.114;2024-03-02T08:28:14;5.90;1.00
22532;DHT22;11432;46.924;7.114;2024-03-02T08:30:40;5.80;99.90
22532;DHT22;11432;46.924;7.114;2024-03-02T08:33:06;5.70;99.90
22532;DHT22;11432;46.924;7.114;2024-03-02T08:35:31;5.60;59.90
22532;DHT22;11432;46.924;7.114;2024-03-02T08:38:02;5.60;1.00
22532;DHT22;11432;46.924;7.114;2024-03-02T08:40:28;5.60;1.00
22532;DHT22;11432;46.924;7.114;2024-03-02T08:42:54;5.70;1.00
22532;DHT22;11432;46.924;7.114;2024-03-02T08:45:19;5.80;1.00
22532;DHT22;11432;46.924;7.114;2024-03-02T08:47:46;6.10;99.90
22532;DHT22;11432;46.924;7.114;2024-03-02T08:50:11;6.20;46.30
22532;DHT22;11432;46.924;7.114;2024-03-02T08:52:37;6.10;99.90
22532;DHT22;11432;46.924;7.114;2024-03-02T08:55:03;6.20;1.00
22532;DHT22;11432;46.924;7.114;2024-03-02T08:57:28;6.20;1.00
22532;DHT22;11432;46.924;7.114;2024-03-02T08:59:54;6.40;99.90
22532;DHT22;11432;46.924;7.114;2024-03-02T09:02:20;6.50;94.80
22532;DHT22;11432;46.924;7.114;2024-03-02T09:04:45;6.60;1.00
22532;DHT22;11432;46.924;7.114;2024-03-02T09:07:11;6.80;1.00
22532;DHT22;11432;46.924;7.114;2024-03-02T09:09:36;7.00;1.00
22532;DHT22;11432;46.924;7.114;2024-03-02T09:12:05;7.10;1.00
22532;DHT22;11432;46.924;7.114;2024-03-02T09:14:31;7.30;1.00
22532;DHT22;11432;46.924;7.114;2024-03-02T09:16:56;7.30;99.90
22532;DHT22;11432;46.924;7.114;2024-03-02T09:19:22;7.30;1.00
22532;DHT22;11432;46.924;7.114;2024-03-02T09:21:48;7.20;1.00
22532;DHT22;11432;46.924;7.114;2024-03-02T09:24:13;7.10;1.00
22532;DHT22;11432;46.924;7.114;2024-03-02T09:26:39;7.20;99.90
22532;DHT22;11432;46.924;7.114;2024-03-02T09:29:04;7.20;1.00
22532;DHT22;11432;46.924;7.114;2024-03-02T09:31:30;7.10;1.00
22532;DHT22;11432;46.924;7.114;2024-03-02T09:33:55;7.20;99.90
22532;DHT22;11432;46.924;7.114;2024-03-02T09:36:22;7.30;99.90
22532;DHT22;11432;46.924;7.114;2024-03-02T09:38:48;7.40;1.00
22532;DHT22;11432;46.924;7.114;2024-03-02T09:41:17;7.50;99.90
22532;DHT22;11432;46.924;7.114;2024-03-02T09:43:42;7.60;1.00
22532;DHT22;11432;46.924;7.114;2024-03-02T09:46:09;7.70;99.90
22532;DHT22;11432;46.924;7.114;2024-03-02T09:48:35;7.70;1.00
22532;DHT22;11432;46.924;7.114;2024-03-02T09:51:01;7.70;99.90
22532;DHT22;11432;46.924;7.114;2024-03-02T09:53:32;7.70;1.00
22532;DHT22;11432;46.924;7.114;2024-03-02T09:55:59;7.90;99.90
22532;DHT22;11432;46.924;7.114;2024-03-02T09:58:25;8.10;1.00
22532;DHT22;11432;46.924;7.114;2024-03-02T10:00:50;8.20;1.00
22532;DHT22;11432;46.924;7.114;2024-03-02T10:03:18;8.20;1.00
22532;DHT22;11432;46.924;7.114;2024-03-02T10:05:44;8.30;1.00
22532;DHT22;11432;46.924;7.114;2024-03-02T10:08:10;8.50;99.90
22532;DHT22;11432;46.924;7.114;2024-03-02T10:10:40;8.40;99.90
22532;DHT22;11432;46.924;7.114;2024-03-02T10:13:07;8.50;99.90
22532;DHT22;11432;46.924;7.114;2024-03-02T10:15:33;8.80;99.90
22532;DHT22;11432;46.924;7.114;2024-03-02T10:17:59;9.00;1.00
22532;DHT22;11432;46.924;7.114;2024-03-02T10:20:25;9.00;1.00
22532;DHT22;11432;46.924;7.114;2024-03-02T10:22:51;8.60;1.00
22532;DHT22;11432;46.924;7.114;2024-03-02T10:25:37;8.50;1.00
22532;DHT22;11432;46.924;7.114;2024-03-02T10:28:03;8.70;1.00
22532;DHT22;11432;46.924;7.114;2024-03-02T10:30:31;8.70;1.00
22532;DHT22;11432;46.924;7.114;2024-03-02T10:32:57;9.10;1.00
22532;DHT22;11432;46.924;7.114;2024-03-02T10:35:23;9.30;99.90
22532;DHT22;11432;46.924;7.114;2024-03-02T10:37:49;9.30;58.50
22532;DHT22;11432;46.924;7.114;2024-03-02T10:40:16;9.60;44.60
22532;DHT22;11432;46.924;7.114;2024-03-02T10:42:42;9.60;11.40
22532;DHT22;11432;46.924;7.114;2024-03-02T10:45:10;9.60;1.00
22532;DHT22;11432;46.924;7.114;2024-03-02T10:47:38;9.30;1.00
22532;DHT22;11432;46.924;7.114;2024-03-02T10:50:07;9.20;1.00
22532;DHT22;11432;46.924;7.114;2024-03-02T10:52:35;9.20;1.00
22532;DHT22;11432;46.924;7.114;2024-03-02T10:55:02;9.60;1.00
22532;DHT22;11432;46.924;7.114;2024-03-02T10:57:36;10.00;1.00
22532;DHT22;11432;46.924;7.114;2024-03-02T11:00:06;9.90;1.00
22532;DHT22;11432;46.924;7.114;2024-03-02T11:02:38;10.00;1.00
22532;DHT22;11432;46.924;7.114;2024-03-02T11:05:06;10.30;1.00
22532;DHT22;11432;46.924;7.114;2024-03-02T11:07:33;10.80;98.10
22532;DHT22;11432;46.924;7.114;2024-03-02T11:10:01;11.10;1.00
22532;DHT22;11432;46.924;7.114;2024-03-02T11:12:38;11.60;99.90
22532;DHT22;11432;46.924;7.114;2024-03-02T11:15:10;12.20;99.90
22532;DHT22;11432;46.924;7.114;2024-03-02T11:17:38;12.50;99.90
22532;DHT22;11432;46.924;7.114;2024-03-02T11:20:06;13.00;99.90
22532;DHT22;11432;46.924;7.114;2024-03-02T11:22:35;12.90;99.90
22532;DHT22;11432;46.924;7.114;2024-03-02T11:25:01;11.90;99.90
22532;DHT22;11432;46.924;7.114;2024-03-02T11:35:26;11.70;1.00
22532;DHT22;11432;46.924;7.114;2024-03-02T11:37:54;11.60;41.30
22532;DHT22;11432;46.924;7.114;2024-03-02T11:40:24;11.90;10.20
22532;DHT22;11432;46.924;7.114;2024-03-02T11:42:50;12.50;42.60
22532;DHT22;11432;46.924;7.114;2024-03-02T11:45:17;12.60;99.90
22532;DHT22;11432;46.924;7.114;2024-03-02T11:47:50;12.80;99.90
22532;DHT22;11432;46.924;7.114;2024-03-02T11:50:28;13.10;99.90
22532;DHT22;11432;46.924;7.114;2024-03-02T11:52:54;13.10;1.00
22532;DHT22;11432;46.924;7.114;2024-03-02T11:55:21;12.40;1.00
22532;DHT22;11432;46.924;7.114;2024-03-02T11:57:48;12.60;1.00
22532;DHT22;11432;46.924;7.114;2024-03-02T12:00:18;12.90;99.90
22532;DHT22;11432;46.924;7.114;2024-03-02T12:02:45;13.30;1.00
22532;DHT22;11432;46.924;7.114;2024-03-02T12:05:15;13.00;1.00
22532;DHT22;11432;46.924;7.114;2024-03-02T12:07:42;12.60;1.00
22532;DHT22;11432;46.924;7.114;2024-03-02T12:10:09;12.20;34.90
22532;DHT22;11432;46.924;7.114;2024-03-02T12:12:34;11.80;99.90
22532;DHT22;11432;46.924;7.114;2024-03-02T12:15:02;11.50;1.00
22532;DHT22;11432;46.924;7.114;2024-03-02T12:17:29;11.40;1.00
22532;DHT22;11432;46.924;7.114;2024-03-02T12:19:54;11.20;99.90
22532;DHT22;11432;46.924;7.114;2024-03-02T12:22:21;11.30;99.90
22532;DHT22;11432;46.924;7.114;2024-03-02T12:24:47;11.30;99.90
22532;DHT22;11432;46.924;7.114;2024-03-02T12:27:14;11.20;1.00
22532;DHT22;11432;46.924;7.114;2024-03-02T12:29:40;11.20;1.00
22532;DHT22;11432;46.924;7.114;2024-03-02T12:32:08;11.30;1.00
22532;DHT22;11432;46.924;7.114;2024-03-02T12:34:33;11.40;99.90
22532;DHT22;11432;46.924;7.114;2024-03-02T12:36:59;11.30;99.90
22532;DHT22;11432;46.924;7.114;2024-03-02T12:39:25;11.30;1.00
22532;DHT22;11432;46.924;7.114;2024-03-02T12:41:51;11.40;1.00
22532;DHT22;11432;46.924;7.114;2024-03-02T12:44:20;11.40;1.00
22532;DHT22;11432;46.924;7.114;2024-03-02T12:46:46;11.40;1.00
22532;DHT22;11432;46.924;7.114;2024-03-02T12:49:14;11.50;1.00
22532;DHT22;11432;46.924;7.114;2024-03-02T12:51:42;11.60;1.00
22532;DHT22;11432;46.924;7.114;2024-03-02T12:54:11;11.70;1.00
22532;DHT22;11432;46.924;7.114;2024-03-02T12:56:37;11.60;1.00
22532;DHT22;11432;46.924;7.114;2024-03-02T12:59:04;11.50;1.00
22532;DHT22;11432;46.924;7.114;2024-03-02T13:01:29;11.60;1.00
22532;DHT22;11432;46.924;7.114;2024-03-02T13:03:58;11.60;1.00
22532;DHT22;11432;46.924;7.114;2024-03-02T13:06:24;11.50;1.00
22532;DHT22;11432;46.924;7.114;2024-03-02T13:08:52;11.50;1.00
22532;DHT22;11432;46.924;7.114;2024-03-02T13:11:18;11.50;99.90
22532;DHT22;11432;46.924;7.114;2024-03-02T13:13:45;11.60;99.90
22532;DHT22;11432;46.924;7.114;2024-03-02T13:16:11;11.60;99.90
22532;DHT22;11432;46.924;7.114;2024-03-02T13:18:39;11.50;99.90
22532;DHT22;11432;46.924;7.114;2024-03-02T13:21:05;11.50;99.90
22532;DHT22;11432;46.924;7.114;2024-03-02T13:23:31;11.60;99.90
22532;DHT22;11432;46.924;7.114;2024-03-02T13:25:58;11.70;99.90
22532;DHT22;11432;46.924;7.114;2024-03-02T13:28:24;11.60;95.50
22532;DHT22;11432;46.924;7.114;2024-03-02T13:30:50;11.60;99.90
22532;DHT22;11432;46.924;7.114;2024-03-02T13:33:15;11.80;99.90
22532;DHT22;11432;46.924;7.114;2024-03-02T13:35:44;11.90;99.90
22532;DHT22;11432;46.924;7.114;2024-03-02T13:38:10;12.20;99.90
22532;DHT22;11432;46.924;7.114;2024-03-02T13:40:36;12.60;99.90
22532;DHT22;11432;46.924;7.114;2024-03-02T13:43:02;13.00;99.90
22532;DHT22;11432;46.924;7.114;2024-03-02T13:45:28;13.90;1.00
22532;DHT22;11432;46.924;7.114;2024-03-02T13:47:54;14.90;99.90
22532;DHT22;11432;46.924;7.114;2024-03-02T13:50:19;15.30;45.20
22532;DHT22;11432;46.924;7.114;2024-03-02T13:52:45;15.60;1.00
22532;DHT22;11432;46.924;7.114;2024-03-02T13:55:11;15.50;99.90
22532;DHT22;11432;46.924;7.114;2024-03-02T13:57:36;14.70;62.90
22532;DHT22;11432;46.924;7.114;2024-03-02T14:00:03;14.00;99.90
22532;DHT22;11432;46.924;7.114;2024-03-02T14:02:29;14.50;1.00
22532;DHT22;11432;46.924;7.114;2024-03-02T14:04:54;15.00;99.90
22532;DHT22;11432;46.924;7.114;2024-03-02T14:07:20;16.90;1.00
22532;DHT22;11432;46.924;7.114;2024-03-02T14:09:46;17.40;99.90
22532;DHT22;11432;46.924;7.114;2024-03-02T14:12:12;18.40;99.90
22532;DHT22;11432;46.924;7.114;2024-03-02T14:14:39;18.50;99.90
22532;DHT22;11432;46.924;7.114;2024-03-02T14:17:04;18.50;1.00
22532;DHT22;11432;46.924;7.114;2024-03-02T14:19:32;18.80;1.00
22532;DHT22;11432;46.924;7.114;2024-03-02T14:21:58;18.00;1.00
22532;DHT22;11432;46.924;7.114;2024-03-02T14:24:23;16.50;1.00
22532;DHT22;11432;46.924;7.114;2024-03-02T14:26:51;15.90;99.90
22532;DHT22;11432;46.924;7.114;2024-03-02T14:29:17;15.50;10.00
22532;DHT22;11432;46.924;7.114;2024-03-02T14:31:43;15.00;1.00
22532;DHT22;11432;46.924;7.114;2024-03-02T14:34:09;14.50;99.90
22532;DHT22;11432;46.924;7.114;2024-03-02T14:36:35;14.00;99.90
22532;DHT22;11432;46.924;7.114;2024-03-02T14:39:00;13.70;1.00
22532;DHT22;11432;46.924;7.114;2024-03-02T14:41:26;13.60;99.90
22532;DHT22;11432;46.924;7.114;2024-03-02T14:43:52;13.60;99.90
22532;DHT22;11432;46.924;7.114;2024-03-02T14:46:18;13.50;1.00
22532;DHT22;11432;46.924;7.114;2024-03-02T14:48:45;13.40;1.00
22532;DHT22;11432;46.924;7.114;2024-03-02T14:51:11;13.20;1.00
22532;DHT22;11432;46.924;7.114;2024-03-02T14:53:37;13.00;99.90
22532;DHT22;11432;46.924;7.114;2024-03-02T14:56:04;12.80;1.00
22532;DHT22;11432;46.924;7.114;2024-03-02T14:58:29;12.60;1.00
22532;DHT22;11432;46.924;7.114;2024-03-02T15:00:55;12.60;1.00
22532;DHT22;11432;46.924;7.114;2024-03-02T15:03:21;12.80;99.90
22532;DHT22;11432;46.924;7.114;2024-03-02T15:05:47;12.90;99.90
22532;DHT22;11432;46.924;7.114;2024-03-02T15:08:17;12.80;99.90
22532;DHT22;11432;46.924;7.114;2024-03-02T15:10:42;12.80;99.90
22532;DHT22;11432;46.924;7.114;2024-03-02T15:13:08;12.70;99.90
22532;DHT22;11432;46.924;7.114;2024-03-02T15:15:34;12.60;99.90
22532;DHT22;11432;46.924;7.114;2024-03-02T15:17:59;12.50;99.90
22532;DHT22;11432;46.924;7.114;2024-03-02T15:20:25;12.50;99.90
22532;DHT22;11432;46.924;7.114;2024-03-02T15:22:51;12.60;99.90
22532;DHT22;11432;46.924;7.114;2024-03-02T15:25:16;12.70;99.90
22532;DHT22;11432;46.924;7.114;2024-03-02T15:27:42;12.70;99.90
22532;DHT22;11432;46.924;7.114;2024-03-02T15:30:08;12.60;99.90
22532;DHT22;11432;46.924;7.114;2024-03-02T15:32:34;12.60;99.90
22532;DHT22;11432;46.924;7.114;2024-03-02T15:35:00;12.60;99.90
22532;DHT22;11432;46.924;7.114;2024-03-02T15:37:25;12.50;99.90
22532;DHT22;11432;46.924;7.114;2024-03-02T15:39:51;12.30;99.90
22532;DHT22;11432;46.924;7.114;2024-03-02T15:42:17;12.20;99.90
22532;DHT22;11432;46.924;7.114;2024-03-02T15:44:43;12.20;1.00
22532;DHT22;11432;46.924;7.114;2024-03-02T15:47:09;12.10;99.90
22532;DHT22;11432;46.924;7.114;2024-03-02T15:49:34;12.10;99.90
22532;DHT22;11432;46.924;7.114;2024-03-02T15:52:00;12.00;99.90